Owatonna, MN

6:24 PM CDT on March 22, 2017 (GMT -0500)
Owatonna Degner Regional

Weather History for KOWA - April, 2013

Change the Weather History Date:

Wednesday, April 17, 2013

  Actual Average Record
Temperature  
Mean Temperature 36 °F -  
Max Temperature 37 °F 61 °F 85 °F (1985)
Min Temperature 35 °F 36 °F 19 °F (1997)
Degree Days  
Heating Degree Days 29    
Moisture  
Dew Point 33 °F    
Average Humidity 88    
Maximum Humidity 100    
Minimum Humidity 75    
Precipitation  
Precipitation 0.51 in - - ()
Sea Level Pressure  
Sea Level Pressure 30.10 in    
Wind  
Wind Speed 8 mph (NE)    
Max Wind Speed 22 mph    
Max Gust Speed 32 mph    
Visibility 8 miles    
Events Rain    
Averages and records for this station are not official NWS values.
T = Trace of Precipitation, MM = Missing Value Source: NWS Daily Summary

Daily Weather History Graph

Daily Weather History Graph

Search for Another Location

Airport or City:

Trip Planner

Search our weather history database for the weather conditions in past years. The results will help you decide how hot, cold, wet, or windy it might be!

Date:

Astronomy

Apr. 17, 2013 Rise Set
Actual Time 6:25 AM CDT 7:59 PM CDT
Civil Twilight 5:55 AM CDT 8:30 PM CDT
Nautical Twilight 5:18 AM CDT 9:07 PM CDT
Astronomical Twilight 4:39 AM CDT 9:46 PM CDT
Moon 11:36 AM CDT (4/17) 1:42 AM CDT (4/17)
Length of Visible Light 14h 34m
Length of Day
13h 34m
Waxing Crescent, 42% of the Moon is Illuminated
Apr 17
Waxing Crescent
Apr 18
First Quarter
Apr 25
Full
May 2
Last Quarter
May 9
New

Hourly Weather History & Observations

Time (CDT) Temp. Windchill Dew Point Humidity Pressure Visibility Wind Dir Wind Speed Gust Speed Precip Events Conditions
12:14 AM 35.6 °F - 30.2 °F 81% 30.30 in 10.0 mi Calm Calm - N/A   Clear
12:34 AM 35.6 °F - 30.2 °F 81% 30.29 in 10.0 mi Calm Calm - N/A   Clear
12:54 AM 35.6 °F - 30.2 °F 81% 30.29 in 10.0 mi Calm Calm - N/A   Scattered Clouds
1:14 AM 35.6 °F 31.7 °F 30.2 °F 81% 30.28 in 10.0 mi NE 4.6 mph - N/A   Scattered Clouds
1:34 AM 35.6 °F 30.7 °F 30.2 °F 81% 30.28 in 10.0 mi ENE 5.8 mph - N/A   Mostly Cloudy
1:54 AM 35.6 °F 31.7 °F 30.2 °F 81% 30.28 in 10.0 mi East 4.6 mph - N/A   Mostly Cloudy
2:14 AM 35.6 °F 32.8 °F 30.2 °F 81% 30.27 in 10.0 mi NE 3.5 mph - N/A   Scattered Clouds
2:34 AM 35.6 °F 32.8 °F 30.2 °F 81% 30.28 in 10.0 mi East 3.5 mph - N/A   Scattered Clouds
2:54 AM 35.6 °F 31.7 °F 30.2 °F 81% 30.27 in 10.0 mi ENE 4.6 mph - N/A   Mostly Cloudy
3:14 AM 35.6 °F 30.7 °F 30.2 °F 81% 30.27 in 10.0 mi ENE 5.8 mph - N/A   Overcast
3:34 AM 37.4 °F 33.8 °F 30.2 °F 75% 30.26 in 10.0 mi ENE 4.6 mph - N/A   Overcast
3:54 AM 37.4 °F 32.8 °F 30.2 °F 75% 30.26 in 10.0 mi NE 5.8 mph - N/A   Mostly Cloudy
4:34 AM 37.4 °F 32.1 °F 30.2 °F 75% 30.24 in 10.0 mi ENE 6.9 mph - N/A   Mostly Cloudy
4:54 AM 35.6 °F 29.9 °F 30.2 °F 81% 30.22 in 10.0 mi NE 6.9 mph - N/A   Scattered Clouds
5:14 AM 35.6 °F 29.2 °F 30.2 °F 81% 30.20 in 10.0 mi NE 8.1 mph - N/A   Scattered Clouds
5:34 AM 35.6 °F 28.6 °F 30.2 °F 81% 30.19 in 10.0 mi ENE 9.2 mph - N/A   Overcast
5:54 AM 35.6 °F 28.6 °F 30.2 °F 81% 30.19 in 10.0 mi ENE 9.2 mph - N/A   Overcast
6:14 AM 35.6 °F 29.9 °F 30.2 °F 81% 30.21 in 10.0 mi East 6.9 mph - N/A   Overcast
6:34 AM 35.6 °F 30.7 °F 30.2 °F 81% 30.23 in 10.0 mi East 5.8 mph - N/A   Overcast
6:54 AM 37.4 °F - 30.2 °F 75% 30.25 in 10.0 mi Calm Calm - N/A   Overcast
7:14 AM 35.6 °F 29.9 °F 30.2 °F 81% 30.24 in 10.0 mi NE 6.9 mph - N/A   Overcast
7:34 AM 35.6 °F 29.9 °F 30.2 °F 81% 30.22 in 10.0 mi ENE 6.9 mph - N/A   Overcast
7:54 AM 37.4 °F 30.8 °F 30.2 °F 75% 30.21 in 10.0 mi ENE 9.2 mph - N/A   Overcast
8:14 AM 37.4 °F 29.3 °F 30.2 °F 75% 30.20 in 10.0 mi ENE 12.7 mph - N/A   Overcast
8:34 AM 37.4 °F 29.8 °F 30.2 °F 75% 30.19 in 10.0 mi ENE 11.5 mph 19.6 mph N/A   Overcast
9:14 AM 37.4 °F 29.8 °F 30.2 °F 75% 30.17 in 10.0 mi ENE 11.5 mph 16.1 mph N/A   Overcast
9:34 AM 37.4 °F 30.8 °F 30.2 °F 75% 30.20 in 10.0 mi ENE 9.2 mph - N/A   Overcast
9:54 AM 37.4 °F 33.8 °F 30.2 °F 75% 30.23 in 10.0 mi ENE 4.6 mph - N/A   Overcast
10:14 AM 37.4 °F 31.4 °F 32.0 °F 81% 30.23 in 10.0 mi East 8.1 mph - N/A Rain Light Rain
10:34 AM 37.4 °F 29.8 °F 32.0 °F 81% 30.21 in 10.0 mi East 11.5 mph - N/A Rain Light Rain
10:54 AM 37.4 °F 30.3 °F 32.0 °F 81% 30.21 in 10.0 mi ENE 10.4 mph - N/A Rain Light Rain
11:14 AM 37.4 °F 28.9 °F 33.8 °F 87% 30.19 in 10.0 mi ENE 13.8 mph - 0.02 in Rain Light Rain
11:34 AM 35.6 °F 27.1 °F 33.8 °F 93% 30.16 in 10.0 mi ENE 12.7 mph - 0.05 in Rain Rain
11:54 AM 35.6 °F 26.6 °F 33.8 °F 93% 30.14 in 10.0 mi ENE 13.8 mph - 0.09 in Rain Rain
12:14 PM 35.6 °F 24.5 °F 33.8 °F 93% 30.07 in 10.0 mi ENE 20.7 mph 27.6 mph 0.02 in Rain Light Rain
12:34 PM 37.4 °F 28.2 °F 33.8 °F 87% 30.10 in 10.0 mi ENE 16.1 mph - 0.03 in Rain Light Rain
12:54 PM 37.4 °F 28.5 °F 35.6 °F 93% 30.09 in 7.0 mi East 15.0 mph 23.0 mph 0.03 in Rain Rain
1:14 PM 37.4 °F 27.8 °F 35.6 °F 93% 30.07 in 10.0 mi ENE 17.3 mph 25.3 mph N/A   Light Drizzle
1:34 PM 37.4 °F 27.8 °F 35.6 °F 93% 30.05 in 10.0 mi ENE 17.3 mph 21.9 mph N/A   Overcast
1:54 PM 37.4 °F 28.5 °F 35.6 °F 93% 30.05 in 10.0 mi ENE 15.0 mph 23.0 mph N/A   Overcast
2:14 PM 37.4 °F 28.9 °F 35.6 °F 93% 30.05 in 10.0 mi ENE 13.8 mph - N/A   Overcast
2:34 PM 37.4 °F 28.9 °F 35.6 °F 93% 30.04 in 3.0 mi ENE 13.8 mph 18.4 mph N/A   Overcast
2:54 PM 37.4 °F 30.3 °F 35.6 °F 93% 30.03 in 2.5 mi NE 10.4 mph 13.8 mph N/A Rain Light Rain
3:34 PM 37.4 °F 29.8 °F 35.6 °F 93% 30.01 in 3.0 mi NE 11.5 mph 18.4 mph N/A Rain Light Rain
3:54 PM 37.4 °F 30.3 °F 35.6 °F 93% 30.02 in 4.0 mi ENE 10.4 mph - N/A Rain Light Rain
4:14 PM 37.4 °F 28.9 °F 37.4 °F 100% 30.02 in 3.0 mi ENE 13.8 mph 17.3 mph 0.02 in Rain Light Rain
4:34 PM 37.4 °F 29.8 °F 37.4 °F 100% 30.00 in 10.0 mi NE 11.5 mph - 0.04 in Rain Light Rain
4:54 PM 37.4 °F 28.5 °F 35.6 °F 93% 29.98 in 3.0 mi NE 15.0 mph 18.4 mph 0.04 in Rain Rain
5:14 PM 37.4 °F 30.3 °F 35.6 °F 93% 29.96 in 4.0 mi NE 10.4 mph - N/A   Light Drizzle
5:34 PM 37.4 °F 30.3 °F 35.6 °F 93% 29.96 in 5.0 mi NE 10.4 mph - N/A   Overcast
5:54 PM 37.4 °F 29.3 °F 35.6 °F 93% 29.95 in 4.0 mi NE 12.7 mph 18.4 mph N/A   Light Drizzle
6:14 PM 37.4 °F 28.9 °F 35.6 °F 93% 29.94 in 3.0 mi NNE 13.8 mph - N/A   Light Drizzle
6:34 PM 37.4 °F 28.9 °F 35.6 °F 93% 29.94 in 2.5 mi NNE 13.8 mph 21.9 mph N/A   Drizzle
6:54 PM 37.4 °F 28.9 °F 35.6 °F 93% 29.94 in 2.5 mi NNE 13.8 mph 20.7 mph N/A   Drizzle
7:14 PM 37.4 °F 28.5 °F 35.6 °F 93% 29.91 in 3.0 mi NNE 15.0 mph 25.3 mph N/A   Light Drizzle
7:34 PM 37.4 °F 29.8 °F 35.6 °F 93% 29.92 in 4.0 mi NE 11.5 mph - N/A   Drizzle
7:54 PM 37.4 °F 29.3 °F 35.6 °F 93% 29.94 in 3.0 mi NNE 12.7 mph 16.1 mph N/A   Drizzle
8:14 PM 37.4 °F 30.8 °F 35.6 °F 93% 29.97 in 3.0 mi NNE 9.2 mph - 0.01 in Rain Rain
8:34 PM 37.4 °F 30.8 °F 35.6 °F 93% 29.98 in 10.0 mi NE 9.2 mph - 0.10 in Rain Heavy Rain
8:54 PM 35.6 °F 27.5 °F 35.6 °F 100% 29.95 in 10.0 mi NE 11.5 mph - 0.23 in Rain Heavy Rain
9:14 PM 37.4 °F 28.9 °F 35.6 °F 93% 29.93 in 10.0 mi NE 13.8 mph 18.4 mph 0.05 in Rain Rain
9:34 PM 35.6 °F 24.2 °F 35.6 °F 100% 29.81 in - NE 21.9 mph 32.2 mph 0.10 in Rain Light Rain
9:54 PM 35.6 °F 25.9 °F 35.6 °F 100% 29.86 in 10.0 mi NE 16.1 mph 20.7 mph 0.10 in   Overcast
10:14 PM 35.6 °F 28.0 °F 35.6 °F 100% 29.89 in 10.0 mi NE 10.4 mph 21.9 mph N/A   Overcast
10:34 PM 37.4 °F 29.8 °F 35.6 °F 93% 29.89 in 10.0 mi NE 11.5 mph 19.6 mph N/A Rain Light Rain
10:54 PM 35.6 °F 26.2 °F 35.6 °F 100% 29.85 in 5.0 mi NE 15.0 mph - 0.01 in Rain Heavy Rain
11:14 PM 35.6 °F 27.1 °F 35.6 °F 100% 29.84 in 10.0 mi NE 12.7 mph 21.9 mph 0.01 in Rain Light Rain
11:34 PM 35.6 °F 28.0 °F 35.6 °F 100% 29.84 in 10.0 mi NE 10.4 mph 17.3 mph 0.01 in   Light Drizzle
11:54 PM 35.6 °F 28.6 °F 35.6 °F 100% 29.86 in 10.0 mi NNE 9.2 mph - 0.01 in   Drizzle